Time,TemperatureF,DewpointF,PressureIn,WindDirection,WindDirectionDegrees,WindSpeedMPH,WindSpeedGustMPH,Humidity,HourlyPrecipIn,Conditions,Clouds,dailyrainin,SoftwareType,DateUTC
2013-09-15 00:00:00,83.5,61.1,30.26,North,0,0.0,0.0,47,0.00,CLR,SCT,0.00,WeatherDisplay:10.37,2013-09-15 04:00:00,
2013-09-15 00:01:00,83.5,61.7,30.26,North,0,0.0,0.0,48,0.00,CLR,SCT,0.00,WeatherDisplay:10.37,2013-09-15 04:01:00,
2013-09-15 00:02:00,83.5,61.1,30.26,North,0,0.0,0.0,47,0.00,CLR,SCT,0.00,WeatherDisplay:10.37,2013-09-15 04:02:00,
2013-09-15 00:07:00,83.5,62.3,30.26,North,0,0.0,0.0,49,0.00,CLR,SCT,0.00,WeatherDisplay:10.37,2013-09-15 04:07:00,
2013-09-15 00:12:00,83.5,62.3,30.26,North,0,0.0,0.0,49,0.00,CLR,SCT,0.00,WeatherDisplay:10.37,2013-09-15 04:12:00,
2013-09-15 00:17:00,83.5,62.3,30.26,North,0,0.0,0.0,49,0.00,CLR,SCT,0.00,WeatherDisplay:10.37,2013-09-15 04:17:00,
2013-09-15 00:22:00,83.5,62.9,30.26,North,0,0.0,0.0,50,0.00,CLR,SCT,0.00,WeatherDisplay:10.37,2013-09-15 04:22:00,
2013-09-15 00:27:00,83.3,62.7,30.26,North,0,0.0,0.0,50,0.00,CLR,SCT,0.00,WeatherDisplay:10.37,2013-09-15 04:27:00,
2013-09-15 00:32:00,83.3,62.7,30.26,North,0,0.0,0.0,50,0.00,CLR,SCT,0.00,WeatherDisplay:10.37,2013-09-15 04:32:00,
2013-09-15 00:37:00,83.1,62.0,30.26,North,0,0.0,0.0,49,0.00,CLR,SCT,0.00,WeatherDisplay:10.37,2013-09-15 04:37:00,
2013-09-15 00:42:00,83.1,62.6,30.26,North,0,0.0,0.0,50,0.00,CLR,SCT,0.00,WeatherDisplay:10.37,2013-09-15 04:42:00,
2013-09-15 00:47:00,83.1,62.6,30.26,North,0,0.0,0.0,50,0.00,CLR,SCT,0.00,WeatherDisplay:10.37,2013-09-15 04:47:00,
2013-09-15 00:52:00,82.9,61.8,30.26,North,0,0.0,0.0,49,0.00,CLR,SCT,0.00,WeatherDisplay:10.37,2013-09-15 04:52:00,
2013-09-15 00:57:00,82.8,61.1,30.26,North,0,0.0,0.0,48,0.00,CLR,SCT,0.00,WeatherDisplay:10.37,2013-09-15 04:57:00,
2013-09-15 01:02:00,81.5,61.1,30.26,North,0,0.0,0.0,50,0.00,CLR,SCT,0.00,WeatherDisplay:10.37,2013-09-15 05:02:00,
2013-09-15 01:07:00,81.1,62.4,30.26,North,0,0.0,0.0,53,0.00,CLR,SCT,0.00,WeatherDisplay:10.37,2013-09-15 05:07:00,
2013-09-15 01:12:00,81.0,61.7,30.26,North,0,0.0,0.0,52,0.00,CLR,SCT,0.00,WeatherDisplay:10.37,2013-09-15 05:12:00,
2013-09-15 01:17:00,81.0,62.7,30.26,North,0,0.0,0.0,54,0.00,CLR,SCT,0.00,WeatherDisplay:10.37,2013-09-15 05:17:00,
2013-09-15 01:22:00,80.8,63.6,30.26,North,0,0.0,0.0,56,0.00,CLR,SCT,0.00,WeatherDisplay:10.37,2013-09-15 05:22:00,
2013-09-15 01:27:00,80.8,64.1,30.26,North,0,0.0,0.0,57,0.00,CLR,SCT,0.00,WeatherDisplay:10.37,2013-09-15 05:27:00,
2013-09-15 01:32:00,80.8,64.1,30.26,North,0,0.0,0.0,57,0.00,CLR,SCT,0.00,WeatherDisplay:10.37,2013-09-15 05:32:00,
2013-09-15 01:37:00,81.0,64.3,30.26,North,0,0.0,0.0,57,0.00,CLR,SCT,0.00,WeatherDisplay:10.37,2013-09-15 05:37:00,
2013-09-15 01:42:00,80.8,65.1,30.26,North,0,0.0,0.0,59,0.00,CLR,SCT,0.00,WeatherDisplay:10.37,2013-09-15 05:42:00,
2013-09-15 01:47:00,80.6,64.9,30.26,North,0,0.0,0.0,59,0.00,CLR,SCT,0.00,WeatherDisplay:10.37,2013-09-15 05:47:00,
2013-09-15 01:52:00,80.6,65.4,30.26,North,0,0.0,0.0,60,0.00,CLR,SCT,0.00,WeatherDisplay:10.37,2013-09-15 05:52:00,
2013-09-15 01:57:00,80.2,65.6,30.26,North,0,0.0,0.0,61,0.00,CLR,SCT,0.00,WeatherDisplay:10.37,2013-09-15 05:57:00,
2013-09-15 02:02:00,79.7,66.0,30.26,North,0,0.0,0.0,63,0.00,CLR,SCT,0.00,WeatherDisplay:10.37,2013-09-15 06:02:00,
2013-09-15 02:07:00,79.5,65.8,30.26,North,0,0.0,0.0,63,0.00,CLR,SCT,0.00,WeatherDisplay:10.37,2013-09-15 06:07:00,
2013-09-15 02:12:00,79.9,66.2,30.26,North,0,0.0,0.0,63,0.00,CLR,SCT,0.00,WeatherDisplay:10.37,2013-09-15 06:12:00,
2013-09-15 02:17:00,79.9,65.7,30.26,North,0,0.0,0.0,62,0.00,CLR,SCT,0.00,WeatherDisplay:10.37,2013-09-15 06:17:00,
2013-09-15 02:22:00,80.1,65.9,30.26,North,0,0.0,0.0,62,0.00,CLR,SCT,0.00,WeatherDisplay:10.37,2013-09-15 06:22:00,
2013-09-15 02:27:00,80.1,65.9,30.26,North,0,0.0,0.0,62,0.00,CLR,SCT,0.00,WeatherDisplay:10.37,2013-09-15 06:27:00,
2013-09-15 02:32:00,80.1,65.4,30.26,North,0,0.0,0.0,61,0.00,CLR,SCT,0.00,WeatherDisplay:10.37,2013-09-15 06:32:00,
2013-09-15 02:37:00,80.4,65.3,30.26,North,0,0.0,0.0,60,0.00,CLR,SCT,0.00,WeatherDisplay:10.37,2013-09-15 06:37:00,
2013-09-15 02:42:00,80.4,64.8,30.26,North,0,0.0,0.0,59,0.00,CLR,SCT,0.00,WeatherDisplay:10.37,2013-09-15 06:42:00,
2013-09-15 02:47:00,80.4,65.3,30.26,North,0,0.0,0.0,60,0.00,CLR,SCT,0.00,WeatherDisplay:10.37,2013-09-15 06:47:00,
2013-09-15 02:52:00,80.4,64.8,30.26,North,0,0.0,0.0,59,0.00,CLR,SCT,0.00,WeatherDisplay:10.37,2013-09-15 06:52:00,
2013-09-15 02:57:00,80.2,64.1,30.26,North,0,0.0,0.0,58,0.00,CLR,SCT,0.00,WeatherDisplay:10.37,2013-09-15 06:57:00,
2013-09-15 03:02:00,80.2,64.1,30.26,North,0,0.0,0.0,58,0.00,CLR,SCT,0.00,WeatherDisplay:10.37,2013-09-15 07:02:00,
2013-09-15 03:07:00,80.2,64.1,30.26,North,0,0.0,0.0,58,0.00,CLR,SCT,0.00,WeatherDisplay:10.37,2013-09-15 07:07:00,
2013-09-15 03:12:00,80.4,65.3,30.26,North,0,0.0,0.0,60,0.00,CLR,SCT,0.00,WeatherDisplay:10.37,2013-09-15 07:12:00,
2013-09-15 03:17:00,80.6,64.9,30.26,North,0,0.0,0.0,59,0.00,CLR,SCT,0.00,WeatherDisplay:10.37,2013-09-15 07:17:00,
2013-09-15 03:22:00,80.4,64.8,30.26,North,0,0.0,0.0,59,0.00,CLR,SCT,0.00,WeatherDisplay:10.37,2013-09-15 07:22:00,
2013-09-15 03:27:00,80.4,64.3,30.26,North,0,0.0,0.0,58,0.00,CLR,SCT,0.00,WeatherDisplay:10.37,2013-09-15 07:27:00,
2013-09-15 03:32:00,80.4,63.8,30.26,North,0,0.0,0.0,57,0.00,CLR,SCT,0.00,WeatherDisplay:10.37,2013-09-15 07:32:00,
2013-09-15 03:37:00,80.6,64.5,30.26,North,0,0.0,0.0,58,0.00,CLR,SCT,0.00,WeatherDisplay:10.37,2013-09-15 07:37:00,
2013-09-15 03:42:00,80.4,64.3,30.26,North,0,0.0,0.0,58,0.00,CLR,SCT,0.00,WeatherDisplay:10.37,2013-09-15 07:42:00,
2013-09-15 03:47:00,80.4,64.3,30.26,North,0,0.0,0.0,58,0.00,CLR,SCT,0.00,WeatherDisplay:10.37,2013-09-15 07:47:00,
2013-09-15 03:52:00,80.4,65.3,30.26,North,0,0.0,0.0,60,0.00,CLR,SCT,0.00,WeatherDisplay:10.37,2013-09-15 07:52:00,
2013-09-15 03:57:00,80.4,65.3,30.26,North,0,0.0,0.0,60,0.00,CLR,SCT,0.00,WeatherDisplay:10.37,2013-09-15 07:57:00,
2013-09-15 04:02:00,80.4,65.3,30.26,North,0,0.0,0.0,60,0.00,CLR,SCT,0.00,WeatherDisplay:10.37,2013-09-15 08:02:00,
2013-09-15 04:07:00,80.2,65.1,30.26,North,0,0.0,0.0,60,0.00,CLR,SCT,0.00,WeatherDisplay:10.37,2013-09-15 08:07:00,
2013-09-15 04:12:00,80.4,64.8,30.26,North,0,0.0,0.0,59,0.00,CLR,SCT,0.00,WeatherDisplay:10.37,2013-09-15 08:12:00,
2013-09-15 04:17:00,80.4,64.8,30.26,North,0,0.0,0.0,59,0.00,CLR,SCT,0.00,WeatherDisplay:10.37,2013-09-15 08:17:00,
2013-09-15 04:22:00,80.4,65.3,30.26,North,0,0.0,0.0,60,0.00,CLR,SCT,0.00,WeatherDisplay:10.37,2013-09-15 08:22:00,
2013-09-15 04:27:00,80.4,65.3,30.26,North,0,0.0,0.0,60,0.00,CLR,SCT,0.00,WeatherDisplay:10.37,2013-09-15 08:27:00,
2013-09-15 04:32:00,80.4,65.7,30.26,North,0,0.0,0.0,61,0.00,CLR,SCT,0.00,WeatherDisplay:10.37,2013-09-15 08:32:00,
2013-09-15 04:37:00,80.2,65.1,30.26,North,0,0.0,0.0,60,0.00,CLR,SCT,0.00,WeatherDisplay:10.37,2013-09-15 08:37:00,
2013-09-15 04:42:00,80.2,65.6,30.26,North,0,0.0,0.0,61,0.00,CLR,SCT,0.00,WeatherDisplay:10.37,2013-09-15 08:42:00,
2013-09-15 04:48:00,80.1,64.9,30.26,North,0,0.0,0.0,60,0.00,CLR,SCT,0.00,WeatherDisplay:10.37,2013-09-15 08:48:00,
2013-09-15 04:53:00,80.2,65.1,30.26,North,0,0.0,0.0,60,0.00,CLR,SCT,0.00,WeatherDisplay:10.37,2013-09-15 08:53:00,
2013-09-15 04:58:00,80.2,66.0,30.26,North,0,0.0,0.0,62,0.00,CLR,SCT,0.00,WeatherDisplay:10.37,2013-09-15 08:58:00,
2013-09-15 05:03:00,80.1,65.4,30.26,North,0,0.0,0.0,61,0.00,CLR,SCT,0.00,WeatherDisplay:10.37,2013-09-15 09:03:00,
2013-09-15 05:08:00,80.1,64.4,30.26,North,0,0.0,0.0,59,0.00,CLR,SCT,0.00,WeatherDisplay:10.37,2013-09-15 09:08:00,
2013-09-15 05:13:00,80.1,64.4,30.26,North,0,0.0,0.0,59,0.00,CLR,SCT,0.00,WeatherDisplay:10.37,2013-09-15 09:13:00,
2013-09-15 05:18:00,80.1,64.4,30.26,North,0,0.0,0.0,59,0.00,CLR,SCT,0.00,WeatherDisplay:10.37,2013-09-15 09:18:00,
2013-09-15 05:23:00,80.1,64.4,30.26,North,0,0.0,0.0,59,0.00,CLR,SCT,0.00,WeatherDisplay:10.37,2013-09-15 09:23:00,
2013-09-15 05:28:00,80.1,64.9,30.26,North,0,0.0,0.0,60,0.00,CLR,SCT,0.00,WeatherDisplay:10.37,2013-09-15 09:28:00,
2013-09-15 05:33:00,80.1,64.9,30.26,North,0,0.0,0.0,60,0.00,CLR,SCT,0.00,WeatherDisplay:10.37,2013-09-15 09:33:00,
2013-09-15 05:38:00,80.1,64.9,30.26,North,0,0.0,0.0,60,0.00,CLR,SCT,0.00,WeatherDisplay:10.37,2013-09-15 09:38:00,
2013-09-15 05:43:00,80.1,64.9,30.26,North,0,0.0,0.0,60,0.00,CLR,SCT,0.00,WeatherDisplay:10.37,2013-09-15 09:43:00,
2013-09-15 05:48:00,80.1,65.4,30.26,North,0,0.0,0.0,61,0.00,CLR,SCT,0.00,WeatherDisplay:10.37,2013-09-15 09:48:00,
2013-09-15 05:53:00,80.1,65.4,30.26,North,0,0.0,0.0,61,0.00,CLR,SCT,0.00,WeatherDisplay:10.37,2013-09-15 09:53:00,
2013-09-15 05:58:00,80.1,64.9,30.26,North,0,0.0,0.0,60,0.00,CLR,SCT,0.00,WeatherDisplay:10.37,2013-09-15 09:58:00,
2013-09-15 06:03:00,80.1,64.4,30.26,North,0,0.0,0.0,59,0.00,CLR,SCT,0.00,WeatherDisplay:10.37,2013-09-15 10:03:00,
2013-09-15 06:08:00,80.1,64.9,30.26,North,0,0.0,0.0,60,0.00,CLR,SCT,0.00,WeatherDisplay:10.37,2013-09-15 10:08:00,
2013-09-15 06:13:00,80.1,64.4,30.26,North,0,0.0,0.0,59,0.00,CLR,SCT,0.00,WeatherDisplay:10.37,2013-09-15 10:13:00,
2013-09-15 06:18:00,80.1,64.9,30.26,North,0,0.0,0.0,60,0.00,CLR,SCT,0.00,WeatherDisplay:10.37,2013-09-15 10:18:00,
2013-09-15 06:23:00,80.1,64.4,30.26,North,0,0.0,0.0,59,0.00,CLR,SCT,0.00,WeatherDisplay:10.37,2013-09-15 10:23:00,
2013-09-15 06:28:00,80.1,64.4,30.26,North,0,0.0,0.0,59,0.00,CLR,SCT,0.00,WeatherDisplay:10.37,2013-09-15 10:28:00,
2013-09-15 06:33:00,80.1,64.4,30.26,North,0,0.0,0.0,59,0.00,CLR,SCT,0.00,WeatherDisplay:10.37,2013-09-15 10:33:00,
2013-09-15 06:38:00,80.1,64.0,30.26,North,0,0.0,0.0,58,0.00,CLR,SCT,0.00,WeatherDisplay:10.37,2013-09-15 10:38:00,
2013-09-15 06:43:00,80.1,64.4,30.26,North,0,0.0,0.0,59,0.00,CLR,SCT,0.00,WeatherDisplay:10.37,2013-09-15 10:43:00,
2013-09-15 06:48:00,80.1,64.4,30.26,North,0,0.0,0.0,59,0.00,CLR,SCT,0.00,WeatherDisplay:10.37,2013-09-15 10:48:00,
2013-09-15 06:53:00,80.1,64.0,30.26,North,0,0.0,0.0,58,0.00,CLR,SCT,0.00,WeatherDisplay:10.37,2013-09-15 10:53:00,
2013-09-15 06:58:00,80.1,64.0,30.26,North,0,0.0,0.0,58,0.00,CLR,SCT,0.00,WeatherDisplay:10.37,2013-09-15 10:58:00,
2013-09-15 07:03:00,80.1,64.0,30.26,North,0,0.0,0.0,58,0.00,CLR,SCT,0.00,WeatherDisplay:10.37,2013-09-15 11:03:00,
2013-09-15 07:08:00,80.2,64.6,30.26,North,0,0.0,0.0,59,0.00,CLR,SCT,0.00,WeatherDisplay:10.37,2013-09-15 11:08:00,
2013-09-15 07:13:00,80.2,64.1,30.26,North,0,0.0,0.0,58,0.00,CLR,SCT,0.00,WeatherDisplay:10.37,2013-09-15 11:13:00,
2013-09-15 07:18:00,80.2,64.6,30.26,North,0,0.0,0.0,59,0.00,CLR,SCT,0.00,WeatherDisplay:10.37,2013-09-15 11:18:00,
2013-09-15 07:23:00,80.2,64.6,30.26,North,0,0.0,0.0,59,0.00,CLR,SCT,0.00,WeatherDisplay:10.37,2013-09-15 11:23:00,
2013-09-15 07:28:00,80.4,64.8,30.26,North,0,0.0,0.0,59,0.00,CLR,SCT,0.00,WeatherDisplay:10.37,2013-09-15 11:28:00,
2013-09-15 07:33:00,80.4,64.8,30.26,North,0,0.0,0.0,59,0.00,CLR,SCT,0.00,WeatherDisplay:10.37,2013-09-15 11:33:00,
2013-09-15 07:38:00,80.4,64.8,30.26,North,0,0.0,0.0,59,0.00,CLR,SCT,0.00,WeatherDisplay:10.37,2013-09-15 11:38:00,
2013-09-15 07:43:00,80.6,64.9,30.26,North,0,0.0,0.0,59,0.00,CLR,SCT,0.00,WeatherDisplay:10.37,2013-09-15 11:43:00,
2013-09-15 07:48:00,80.6,64.9,30.26,North,0,0.0,0.0,59,0.00,CLR,SCT,0.00,WeatherDisplay:10.37,2013-09-15 11:48:00,
2013-09-15 07:53:00,80.6,64.5,30.26,North,0,0.0,0.0,58,0.00,CLR,SCT,0.00,WeatherDisplay:10.37,2013-09-15 11:53:00,
2013-09-15 07:58:00,80.8,64.6,30.26,North,0,0.0,0.0,58,0.00,CLR,SCT,0.00,WeatherDisplay:10.37,2013-09-15 11:58:00,
2013-09-15 08:03:00,81.0,64.8,30.26,North,0,0.0,0.0,58,0.00,CLR,SCT,0.00,WeatherDisplay:10.37,2013-09-15 12:03:00,
2013-09-15 08:08:00,81.1,65.5,30.26,North,0,0.0,0.0,59,0.00,CLR,SCT,0.00,WeatherDisplay:10.37,2013-09-15 12:08:00,
2013-09-15 08:13:00,81.3,65.1,30.26,North,0,0.0,0.0,58,0.00,CLR,SCT,0.00,WeatherDisplay:10.37,2013-09-15 12:13:00,
2013-09-15 08:18:00,81.5,65.3,30.26,North,0,0.0,0.0,58,0.00,CLR,SCT,0.00,WeatherDisplay:10.37,2013-09-15 12:18:00,
2013-09-15 08:23:00,81.7,65.0,30.26,North,0,0.0,0.0,57,0.00,CLR,SCT,0.00,WeatherDisplay:10.37,2013-09-15 12:23:00,
2013-09-15 08:28:00,81.9,65.1,30.26,North,0,0.0,0.0,57,0.00,CLR,SCT,0.00,WeatherDisplay:10.37,2013-09-15 12:28:00,
2013-09-15 08:33:00,81.9,64.1,30.26,North,0,0.0,0.0,55,0.00,CLR,SCT,0.00,WeatherDisplay:10.37,2013-09-15 12:33:00,
2013-09-15 08:38:00,81.7,63.9,30.26,North,0,0.0,0.0,55,0.00,CLR,SCT,0.00,WeatherDisplay:10.37,2013-09-15 12:38:00,
2013-09-15 08:43:00,81.7,63.4,30.26,North,0,0.0,0.0,54,0.00,CLR,SCT,0.00,WeatherDisplay:10.37,2013-09-15 12:43:00,
2013-09-15 08:48:00,81.7,64.5,30.26,North,0,0.0,0.0,56,0.00,CLR,SCT,0.00,WeatherDisplay:10.37,2013-09-15 12:48:00,
2013-09-15 08:53:00,81.7,64.5,30.26,North,0,0.0,0.0,56,0.00,CLR,SCT,0.00,WeatherDisplay:10.37,2013-09-15 12:53:00,
2013-09-15 08:58:00,81.7,62.9,30.26,North,0,0.0,0.0,53,0.00,CLR,SCT,0.00,WeatherDisplay:10.37,2013-09-15 12:58:00,
2013-09-15 09:03:00,81.7,62.9,30.26,North,0,0.0,0.0,53,0.00,CLR,SCT,0.00,WeatherDisplay:10.37,2013-09-15 13:03:00,
2013-09-15 09:08:00,81.7,63.9,30.26,North,0,0.0,0.0,55,0.00,CLR,SCT,0.00,WeatherDisplay:10.37,2013-09-15 13:08:00,
2013-09-15 09:13:00,81.7,64.5,30.26,North,0,0.0,0.0,56,0.00,CLR,SCT,0.00,WeatherDisplay:10.37,2013-09-15 13:13:00,
2013-09-15 09:18:00,81.7,65.5,30.26,North,0,0.0,0.0,58,0.00,CLR,SCT,0.00,WeatherDisplay:10.37,2013-09-15 13:18:00,
2013-09-15 09:23:00,81.7,66.0,30.26,North,0,0.0,0.0,59,0.00,CLR,SCT,0.00,WeatherDisplay:10.37,2013-09-15 13:23:00,
2013-09-15 09:28:00,81.7,66.0,30.26,North,0,0.0,0.0,59,0.00,CLR,SCT,0.00,WeatherDisplay:10.37,2013-09-15 13:28:00,
2013-09-15 09:33:00,81.7,66.4,30.26,North,0,0.0,0.0,60,0.00,CLR,SCT,0.00,WeatherDisplay:10.37,2013-09-15 13:33:00,
2013-09-15 09:38:00,81.5,66.3,30.26,North,0,0.0,0.0,60,0.00,CLR,SCT,0.00,WeatherDisplay:10.37,2013-09-15 13:38:00,
2013-09-15 09:43:00,81.7,66.4,30.26,North,0,0.0,0.0,60,0.00,CLR,SCT,0.00,WeatherDisplay:10.37,2013-09-15 13:43:00,
2013-09-15 09:48:00,81.5,66.8,30.26,North,0,0.0,0.0,61,0.00,CLR,SCT,0.00,WeatherDisplay:10.37,2013-09-15 13:48:00,
2013-09-15 09:53:00,81.5,65.8,30.26,North,0,0.0,0.0,59,0.00,CLR,SCT,0.00,WeatherDisplay:10.37,2013-09-15 13:53:00,
2013-09-15 09:58:00,81.5,66.8,30.26,North,0,0.0,0.0,61,0.00,CLR,SCT,0.00,WeatherDisplay:10.37,2013-09-15 13:58:00,
2013-09-15 10:03:00,81.1,65.0,30.26,North,0,0.0,0.0,58,0.00,CLR,SCT,0.00,WeatherDisplay:10.37,2013-09-15 14:03:00,
2013-09-15 10:09:00,80.8,64.6,30.26,North,0,0.0,0.0,58,0.00,CLR,SCT,0.00,WeatherDisplay:10.37,2013-09-15 14:09:00,
2013-09-15 10:14:00,80.4,64.3,30.26,North,0,0.0,0.0,58,0.00,CLR,SCT,0.00,WeatherDisplay:10.37,2013-09-15 14:14:00,
2013-09-15 10:19:00,80.2,64.6,30.26,North,0,0.0,0.0,59,0.00,CLR,SCT,0.00,WeatherDisplay:10.37,2013-09-15 14:19:00,
2013-09-15 10:24:00,80.2,64.1,30.26,North,0,0.0,0.0,58,0.00,CLR,SCT,0.00,WeatherDisplay:10.37,2013-09-15 14:24:00,
2013-09-15 10:29:00,80.4,64.3,30.26,North,0,0.0,0.0,58,0.00,CLR,SCT,0.00,WeatherDisplay:10.37,2013-09-15 14:29:00,
2013-09-15 10:34:00,80.4,64.3,30.26,North,0,0.0,0.0,58,0.00,CLR,SCT,0.00,WeatherDisplay:10.37,2013-09-15 14:34:00,
2013-09-15 10:39:00,80.6,64.0,30.26,North,0,0.0,0.0,57,0.00,CLR,SCT,0.00,WeatherDisplay:10.37,2013-09-15 14:39:00,
2013-09-15 10:44:00,80.8,64.6,30.26,North,0,0.0,0.0,58,0.00,CLR,SCT,0.00,WeatherDisplay:10.37,2013-09-15 14:44:00,
2013-09-15 10:49:00,81.1,64.5,30.26,North,0,0.0,0.0,57,0.00,CLR,SCT,0.00,WeatherDisplay:10.37,2013-09-15 14:49:00,
2013-09-15 10:54:00,81.7,65.5,30.26,North,0,0.0,0.0,58,0.00,CLR,SCT,0.00,WeatherDisplay:10.37,2013-09-15 14:54:00,
2013-09-15 10:59:00,82.2,65.5,30.26,North,0,0.0,0.0,57,0.00,CLR,SCT,0.00,WeatherDisplay:10.37,2013-09-15 14:59:00,
2013-09-15 11:04:00,82.8,63.9,30.26,North,0,0.0,0.0,53,0.00,CLR,SCT,0.00,WeatherDisplay:10.37,2013-09-15 15:04:00,
2013-09-15 11:09:00,83.3,62.7,30.26,North,0,0.0,0.0,50,0.00,CLR,SCT,0.00,WeatherDisplay:10.37,2013-09-15 15:09:00,
2013-09-15 11:14:00,83.3,63.3,30.26,North,0,0.0,0.0,51,0.00,CLR,SCT,0.00,WeatherDisplay:10.37,2013-09-15 15:14:00,
2013-09-15 11:19:00,83.1,63.7,30.26,North,0,0.0,0.0,52,0.00,CLR,SCT,0.00,WeatherDisplay:10.37,2013-09-15 15:19:00,
2013-09-15 11:24:00,82.8,63.3,30.26,North,0,0.0,0.0,52,0.00,CLR,SCT,0.00,WeatherDisplay:10.37,2013-09-15 15:24:00,
2013-09-15 11:29:00,82.6,63.7,30.26,North,0,0.0,0.0,53,0.00,CLR,SCT,0.00,WeatherDisplay:10.37,2013-09-15 15:29:00,
2013-09-15 11:34:00,82.2,63.9,30.26,North,0,0.0,0.0,54,0.00,CLR,SCT,0.00,WeatherDisplay:10.37,2013-09-15 15:34:00,
2013-09-15 11:39:00,81.9,62.0,30.26,North,0,0.0,0.0,51,0.00,CLR,SCT,0.00,WeatherDisplay:10.37,2013-09-15 15:39:00,
2013-09-15 11:45:00,81.5,61.1,30.26,North,0,0.0,0.0,50,0.00,CLR,SCT,0.00,WeatherDisplay:10.37,2013-09-15 15:45:00,
2013-09-15 11:50:00,81.3,61.5,30.26,North,0,0.0,0.0,51,0.00,CLR,SCT,0.00,WeatherDisplay:10.37,2013-09-15 15:50:00,
2013-09-15 11:55:00,81.1,61.3,30.26,North,0,0.0,0.0,51,0.00,CLR,SCT,0.00,WeatherDisplay:10.37,2013-09-15 15:55:00,
2013-09-15 12:00:00,81.0,61.7,30.26,North,0,0.0,0.0,52,0.00,CLR,SCT,0.00,WeatherDisplay:10.37,2013-09-15 16:00:00,
2013-09-15 12:05:00,80.8,62.1,30.26,North,0,0.0,0.0,53,0.00,CLR,SCT,0.00,WeatherDisplay:10.37,2013-09-15 16:05:00,
2013-09-15 12:10:00,80.4,62.2,30.26,North,0,0.0,0.0,54,0.00,CLR,SCT,0.00,WeatherDisplay:10.37,2013-09-15 16:10:00,
2013-09-15 12:15:00,80.4,62.8,30.26,North,0,0.0,0.0,55,0.00,CLR,SCT,0.00,WeatherDisplay:10.37,2013-09-15 16:15:00,
2013-09-15 12:20:00,80.4,62.8,30.26,North,0,0.0,0.0,55,0.00,CLR,SCT,0.00,WeatherDisplay:10.37,2013-09-15 16:20:00,
2013-09-15 12:25:00,80.2,62.6,30.26,North,0,0.0,0.0,55,0.00,CLR,SCT,0.00,WeatherDisplay:10.37,2013-09-15 16:25:00,
2013-09-15 12:30:00,80.4,62.8,30.26,North,0,0.0,0.0,55,0.00,CLR,SCT,0.00,WeatherDisplay:10.37,2013-09-15 16:30:00,
2013-09-15 12:35:00,80.4,62.8,30.26,North,0,0.0,0.0,55,0.00,CLR,SCT,0.00,WeatherDisplay:10.37,2013-09-15 16:35:00,
2013-09-15 12:40:00,80.2,62.6,30.26,North,0,0.0,0.0,55,0.00,CLR,SCT,0.00,WeatherDisplay:10.37,2013-09-15 16:40:00,
2013-09-15 12:45:00,80.2,62.6,30.26,North,0,0.0,0.0,55,0.00,CLR,SCT,0.00,WeatherDisplay:10.37,2013-09-15 16:45:00,
2013-09-15 12:50:00,80.1,62.4,30.26,North,0,0.0,0.0,55,0.00,CLR,SCT,0.00,WeatherDisplay:10.37,2013-09-15 16:50:00,
2013-09-15 12:55:00,80.1,61.9,30.26,North,0,0.0,0.0,54,0.00,CLR,SCT,0.00,WeatherDisplay:10.37,2013-09-15 16:55:00,
2013-09-15 13:00:00,80.1,61.9,30.26,North,0,0.0,0.0,54,0.00,CLR,SCT,0.00,WeatherDisplay:10.37,2013-09-15 17:00:00,
2013-09-15 13:05:00,80.1,61.9,30.26,North,0,0.0,0.0,54,0.00,CLR,SCT,0.00,WeatherDisplay:10.37,2013-09-15 17:05:00,
2013-09-15 13:10:00,80.2,62.6,30.26,North,0,0.0,0.0,55,0.00,CLR,SCT,0.00,WeatherDisplay:10.37,2013-09-15 17:10:00,
2013-09-15 13:15:00,80.2,62.6,30.26,North,0,0.0,0.0,55,0.00,CLR,SCT,0.00,WeatherDisplay:10.37,2013-09-15 17:15:00,
2013-09-15 13:20:00,80.2,63.1,30.26,North,0,0.0,0.0,56,0.00,CLR,SCT,0.00,WeatherDisplay:10.37,2013-09-15 17:20:00,
2013-09-15 13:25:00,80.2,63.1,30.26,North,0,0.0,0.0,56,0.00,CLR,SCT,0.00,WeatherDisplay:10.37,2013-09-15 17:25:00,
2013-09-15 13:30:00,80.1,63.5,30.26,North,0,0.0,0.0,57,0.00,CLR,SCT,0.00,WeatherDisplay:10.37,2013-09-15 17:30:00,
2013-09-15 13:35:00,80.2,63.6,30.26,North,0,0.0,0.0,57,0.00,CLR,SCT,0.00,WeatherDisplay:10.37,2013-09-15 17:35:00,
2013-09-15 13:40:00,80.2,63.6,30.26,North,0,0.0,0.0,57,0.00,CLR,SCT,0.00,WeatherDisplay:10.37,2013-09-15 17:40:00,
2013-09-15 13:45:00,80.2,64.1,30.26,North,0,0.0,0.0,58,0.00,CLR,SCT,0.00,WeatherDisplay:10.37,2013-09-15 17:45:00,
2013-09-15 13:50:00,80.4,64.8,30.26,North,0,0.0,0.0,59,0.00,CLR,SCT,0.00,WeatherDisplay:10.37,2013-09-15 17:50:00,
2013-09-15 13:55:00,80.2,64.6,30.26,North,0,0.0,0.0,59,0.00,CLR,SCT,0.00,WeatherDisplay:10.37,2013-09-15 17:55:00,
2013-09-15 14:00:00,80.2,64.6,30.26,North,0,0.0,0.0,59,0.00,CLR,SCT,0.00,WeatherDisplay:10.37,2013-09-15 18:00:00,
2013-09-15 14:05:00,80.4,65.3,30.26,North,0,0.0,0.0,60,0.00,CLR,SCT,0.00,WeatherDisplay:10.37,2013-09-15 18:05:00,
2013-09-15 14:10:00,80.4,65.3,30.26,North,0,0.0,0.0,60,0.00,CLR,SCT,0.00,WeatherDisplay:10.37,2013-09-15 18:10:00,
2013-09-15 14:15:00,80.4,65.3,30.26,North,0,0.0,0.0,60,0.00,CLR,SCT,0.00,WeatherDisplay:10.37,2013-09-15 18:15:00,
2013-09-15 14:20:00,80.4,65.3,30.26,North,0,0.0,0.0,60,0.00,CLR,SCT,0.00,WeatherDisplay:10.37,2013-09-15 18:20:00,
2013-09-15 14:25:00,80.6,65.4,30.26,North,0,0.0,0.0,60,0.00,CLR,SCT,0.00,WeatherDisplay:10.37,2013-09-15 18:25:00,
2013-09-15 14:30:00,80.6,65.4,30.26,North,0,0.0,0.0,60,0.00,CLR,SCT,0.00,WeatherDisplay:10.37,2013-09-15 18:30:00,
2013-09-15 14:35:00,80.6,65.4,30.26,North,0,0.0,0.0,60,0.00,CLR,SCT,0.00,WeatherDisplay:10.37,2013-09-15 18:35:00,
2013-09-15 14:40:00,80.6,65.4,30.26,North,0,0.0,0.0,60,0.00,CLR,SCT,0.00,WeatherDisplay:10.37,2013-09-15 18:40:00,
2013-09-15 14:45:00,80.6,65.9,30.26,North,0,0.0,0.0,61,0.00,CLR,SCT,0.00,WeatherDisplay:10.37,2013-09-15 18:45:00,
2013-09-15 14:50:00,80.8,67.5,30.26,North,0,0.0,0.0,64,0.00,CLR,SCT,0.00,WeatherDisplay:10.37,2013-09-15 18:50:00,
2013-09-15 14:55:00,80.8,67.9,30.26,North,0,0.0,0.0,65,0.00,CLR,SCT,0.00,WeatherDisplay:10.37,2013-09-15 18:55:00,
2013-09-15 15:00:00,81.0,68.1,30.26,North,0,0.0,0.0,65,0.00,CLR,SCT,0.00,WeatherDisplay:10.37,2013-09-15 19:00:00,
2013-09-15 15:05:00,81.1,68.3,30.26,North,0,0.0,0.0,65,0.00,CLR,SCT,0.00,WeatherDisplay:10.37,2013-09-15 19:05:00,
2013-09-15 15:10:00,81.1,67.8,30.26,North,0,0.0,0.0,64,0.00,CLR,SCT,0.00,WeatherDisplay:10.37,2013-09-15 19:10:00,
2013-09-15 15:15:00,81.5,67.7,30.26,North,0,0.0,0.0,63,0.00,CLR,SCT,0.00,WeatherDisplay:10.37,2013-09-15 19:15:00,
2013-09-15 15:18:00,81.5,67.7,30.26,North,0,0.0,0.0,63,0.00,CLR,SCT,0.00,WeatherDisplay:10.37,2013-09-15 19:18:00,
2013-09-15 15:23:00,81.5,67.7,30.26,North,0,0.0,0.0,63,0.00,CLR,SCT,0.00,WeatherDisplay:10.37,2013-09-15 19:23:00,
2013-09-15 15:28:00,81.7,67.9,30.26,North,0,0.0,0.0,63,0.00,CLR,SCT,0.00,WeatherDisplay:10.37,2013-09-15 19:28:00,
2013-09-15 15:33:00,81.9,67.6,30.26,North,0,0.0,0.0,62,0.00,CLR,SCT,0.00,WeatherDisplay:10.37,2013-09-15 19:33:00,
2013-09-15 15:38:00,82.0,66.8,30.26,North,0,0.0,0.0,60,0.00,CLR,SCT,0.00,WeatherDisplay:10.37,2013-09-15 19:38:00,
2013-09-15 15:43:00,82.4,67.6,30.26,North,0,0.0,0.0,61,0.00,CLR,SCT,0.00,WeatherDisplay:10.37,2013-09-15 19:43:00,
2013-09-15 15:48:00,82.6,67.3,30.26,North,0,0.0,0.0,60,0.00,CLR,SCT,0.00,WeatherDisplay:10.37,2013-09-15 19:48:00,
2013-09-15 15:53:00,82.8,67.5,30.26,North,0,0.0,0.0,60,0.00,CLR,SCT,0.00,WeatherDisplay:10.37,2013-09-15 19:53:00,
2013-09-15 15:58:00,82.9,67.1,30.26,North,0,0.0,0.0,59,0.00,CLR,SCT,0.00,WeatherDisplay:10.37,2013-09-15 19:58:00,
2013-09-15 16:03:00,83.1,67.3,30.26,North,0,0.0,0.0,59,0.00,CLR,SCT,0.00,WeatherDisplay:10.37,2013-09-15 20:03:00,
2013-09-15 16:08:00,83.5,67.1,30.26,North,0,0.0,0.0,58,0.00,CLR,SCT,0.00,WeatherDisplay:10.37,2013-09-15 20:08:00,
2013-09-15 16:13:00,83.5,66.6,30.26,North,0,0.0,0.0,57,0.00,CLR,SCT,0.00,WeatherDisplay:10.37,2013-09-15 20:13:00,
2013-09-15 16:18:00,83.5,66.6,30.26,North,0,0.0,0.0,57,0.00,CLR,SCT,0.00,WeatherDisplay:10.37,2013-09-15 20:18:00,
2013-09-15 16:23:00,83.3,66.0,30.26,North,0,0.0,0.0,56,0.00,CLR,SCT,0.00,WeatherDisplay:10.37,2013-09-15 20:23:00,
2013-09-15 16:28:00,83.1,65.8,30.26,North,0,0.0,0.0,56,0.00,CLR,SCT,0.00,WeatherDisplay:10.37,2013-09-15 20:28:00,
2013-09-15 16:33:00,82.9,64.6,30.26,North,0,0.0,0.0,54,0.00,CLR,SCT,0.00,WeatherDisplay:10.37,2013-09-15 20:33:00,
2013-09-15 16:38:00,82.9,64.6,30.26,North,0,0.0,0.0,54,0.00,CLR,SCT,0.00,WeatherDisplay:10.37,2013-09-15 20:38:00,
2013-09-15 16:43:00,83.1,64.2,30.26,North,0,0.0,0.0,53,0.00,CLR,SCT,0.00,WeatherDisplay:10.37,2013-09-15 20:43:00,
2013-09-15 16:48:00,83.3,64.4,30.26,North,0,0.0,0.0,53,0.00,CLR,SCT,0.00,WeatherDisplay:10.37,2013-09-15 20:48:00,
2013-09-15 16:53:00,83.5,64.5,30.26,North,0,0.0,0.0,53,0.00,CLR,SCT,0.00,WeatherDisplay:10.37,2013-09-15 20:53:00,
2013-09-15 16:58:00,83.5,64.5,30.26,North,0,0.0,0.0,53,0.00,CLR,SCT,0.00,WeatherDisplay:10.37,2013-09-15 20:58:00,
2013-09-15 17:03:00,83.5,64.5,30.26,North,0,0.0,0.0,53,0.00,CLR,SCT,0.00,WeatherDisplay:10.37,2013-09-15 21:03:00,
2013-09-15 17:08:00,83.5,64.5,30.26,North,0,0.0,0.0,53,0.00,CLR,SCT,0.00,WeatherDisplay:10.37,2013-09-15 21:08:00,
2013-09-15 17:13:00,83.5,64.5,30.26,North,0,0.0,0.0,53,0.00,CLR,SCT,0.00,WeatherDisplay:10.37,2013-09-15 21:13:00,
2013-09-15 17:18:00,83.5,64.5,30.26,North,0,0.0,0.0,53,0.00,CLR,SCT,0.00,WeatherDisplay:10.37,2013-09-15 21:18:00,
2013-09-15 17:23:00,83.5,64.5,30.26,North,0,0.0,0.0,53,0.00,CLR,SCT,0.00,WeatherDisplay:10.37,2013-09-15 21:23:00,
2013-09-15 17:28:00,83.5,64.5,30.26,North,0,0.0,0.0,53,0.00,CLR,SCT,0.00,WeatherDisplay:10.37,2013-09-15 21:28:00,
2013-09-15 17:33:00,83.5,64.5,30.26,North,0,0.0,0.0,53,0.00,CLR,SCT,0.00,WeatherDisplay:10.37,2013-09-15 21:33:00,
2013-09-15 17:38:00,83.5,64.5,30.26,North,0,0.0,0.0,53,0.00,CLR,SCT,0.00,WeatherDisplay:10.37,2013-09-15 21:38:00,
2013-09-15 17:43:00,83.5,64.5,30.26,North,0,0.0,0.0,53,0.00,CLR,SCT,0.00,WeatherDisplay:10.37,2013-09-15 21:43:00,
2013-09-15 17:48:00,83.5,64.5,30.26,North,0,0.0,0.0,53,0.00,CLR,SCT,0.00,WeatherDisplay:10.37,2013-09-15 21:48:00,
2013-09-15 17:53:00,83.5,64.5,30.26,North,0,0.0,0.0,53,0.00,CLR,SCT,0.00,WeatherDisplay:10.37,2013-09-15 21:53:00,
2013-09-15 17:58:00,83.5,64.5,30.26,North,0,0.0,0.0,53,0.00,CLR,SCT,0.00,WeatherDisplay:10.37,2013-09-15 21:58:00,
2013-09-15 18:03:00,83.5,64.5,30.26,North,0,0.0,0.0,53,0.00,CLR,SCT,0.00,WeatherDisplay:10.37,2013-09-15 22:03:00,
2013-09-15 18:08:00,83.5,64.5,30.26,North,0,0.0,0.0,53,0.00,CLR,SCT,0.00,WeatherDisplay:10.37,2013-09-15 22:08:00,
2013-09-15 18:13:00,83.5,64.5,30.26,North,0,0.0,0.0,53,0.00,CLR,SCT,0.00,WeatherDisplay:10.37,2013-09-15 22:13:00,
2013-09-15 18:18:00,83.5,64.5,30.26,North,0,0.0,0.0,53,0.00,CLR,SCT,0.00,WeatherDisplay:10.37,2013-09-15 22:18:00,
2013-09-15 18:23:00,83.5,64.5,30.26,North,0,0.0,0.0,53,0.00,CLR,SCT,0.00,WeatherDisplay:10.37,2013-09-15 22:23:00,
2013-09-15 18:28:00,83.5,64.5,30.26,North,0,0.0,0.0,53,0.00,CLR,SCT,0.00,WeatherDisplay:10.37,2013-09-15 22:28:00,
2013-09-15 18:33:00,83.5,64.5,30.26,North,0,0.0,0.0,53,0.00,CLR,SCT,0.00,WeatherDisplay:10.37,2013-09-15 22:33:00,
2013-09-15 18:38:00,83.5,64.5,30.26,North,0,0.0,0.0,53,0.00,CLR,SCT,0.00,WeatherDisplay:10.37,2013-09-15 22:38:00,
2013-09-15 18:43:00,83.5,64.5,30.26,North,0,0.0,0.0,53,0.00,CLR,SCT,0.00,WeatherDisplay:10.37,2013-09-15 22:43:00,
2013-09-15 18:48:00,83.5,64.5,30.26,North,0,0.0,0.0,53,0.00,CLR,SCT,0.00,WeatherDisplay:10.37,2013-09-15 22:48:00,
2013-09-15 18:53:00,83.5,64.5,30.26,North,0,0.0,0.0,53,0.00,CLR,SCT,0.00,WeatherDisplay:10.37,2013-09-15 22:53:00,
2013-09-15 18:59:00,83.5,64.5,30.26,North,0,0.0,0.0,53,0.00,CLR,SCT,0.00,WeatherDisplay:10.37,2013-09-15 22:59:00,
2013-09-15 19:04:00,83.5,64.5,30.26,North,0,0.0,0.0,53,0.00,CLR,SCT,0.00,WeatherDisplay:10.37,2013-09-15 23:04:00,
2013-09-15 19:09:00,83.5,64.5,30.26,North,0,0.0,0.0,53,0.00,CLR,SCT,0.00,WeatherDisplay:10.37,2013-09-15 23:09:00,
2013-09-15 19:14:00,83.5,64.5,30.26,North,0,0.0,0.0,53,0.00,CLR,SCT,0.00,WeatherDisplay:10.37,2013-09-15 23:14:00,
2013-09-15 19:19:00,83.5,64.5,30.26,North,0,0.0,0.0,53,0.00,CLR,SCT,0.00,WeatherDisplay:10.37,2013-09-15 23:19:00,
2013-09-15 19:24:00,83.5,64.5,30.26,North,0,0.0,0.0,53,0.00,CLR,SCT,0.00,WeatherDisplay:10.37,2013-09-15 23:24:00,
2013-09-15 19:29:00,83.5,64.5,30.26,North,0,0.0,0.0,53,0.00,CLR,SCT,0.00,WeatherDisplay:10.37,2013-09-15 23:29:00,
2013-09-15 19:34:00,83.5,64.5,30.26,North,0,0.0,0.0,53,0.00,CLR,SCT,0.00,WeatherDisplay:10.37,2013-09-15 23:34:00,
2013-09-15 19:39:00,83.5,64.5,30.26,North,0,0.0,0.0,53,0.00,CLR,SCT,0.00,WeatherDisplay:10.37,2013-09-15 23:39:00,
2013-09-15 19:44:00,83.5,64.5,30.26,North,0,0.0,0.0,53,0.00,CLR,SCT,0.00,WeatherDisplay:10.37,2013-09-15 23:44:00,
2013-09-15 19:49:00,83.5,64.5,30.26,North,0,0.0,0.0,53,0.00,CLR,SCT,0.00,WeatherDisplay:10.37,2013-09-15 23:49:00,
2013-09-15 19:54:00,83.5,64.5,30.26,North,0,0.0,0.0,53,0.00,CLR,SCT,0.00,WeatherDisplay:10.37,2013-09-15 23:54:00,
2013-09-15 19:59:00,83.5,64.5,30.26,North,0,0.0,0.0,53,0.00,CLR,SCT,0.00,WeatherDisplay:10.37,2013-09-15 23:59:00,
2013-09-15 20:04:00,83.5,64.5,30.26,North,0,0.0,0.0,53,0.00,CLR,SCT,0.00,WeatherDisplay:10.37,2013-09-16 00:04:00,
2013-09-15 20:09:00,83.5,64.5,30.26,North,0,0.0,0.0,53,0.00,CLR,SCT,0.00,WeatherDisplay:10.37,2013-09-16 00:09:00,
2013-09-15 20:14:00,83.5,64.5,30.26,North,0,0.0,0.0,53,0.00,CLR,SCT,0.00,WeatherDisplay:10.37,2013-09-16 00:14:00,
2013-09-15 20:19:00,83.5,64.5,30.26,North,0,0.0,0.0,53,0.00,CLR,SCT,0.00,WeatherDisplay:10.37,2013-09-16 00:19:00,
2013-09-15 20:24:00,83.5,64.5,30.26,North,0,0.0,0.0,53,0.00,CLR,SCT,0.00,WeatherDisplay:10.37,2013-09-16 00:24:00,
2013-09-15 20:29:00,83.5,64.5,30.26,North,0,0.0,0.0,53,0.00,CLR,SCT,0.00,WeatherDisplay:10.37,2013-09-16 00:29:00,
2013-09-15 20:34:00,83.5,64.5,30.26,North,0,0.0,0.0,53,0.00,CLR,SCT,0.00,WeatherDisplay:10.37,2013-09-16 00:34:00,
2013-09-15 20:39:00,83.5,64.5,30.26,North,0,0.0,0.0,53,0.00,CLR,SCT,0.00,WeatherDisplay:10.37,2013-09-16 00:39:00,
2013-09-15 20:44:00,83.5,64.5,30.26,North,0,0.0,0.0,53,0.00,CLR,SCT,0.00,WeatherDisplay:10.37,2013-09-16 00:44:00,
2013-09-15 20:49:00,83.5,64.5,30.26,North,0,0.0,0.0,53,0.00,CLR,SCT,0.00,WeatherDisplay:10.37,2013-09-16 00:49:00,
2013-09-15 20:54:00,83.5,64.5,30.26,North,0,0.0,0.0,53,0.00,CLR,SCT,0.00,WeatherDisplay:10.37,2013-09-16 00:54:00,
2013-09-15 20:59:00,83.5,64.5,30.26,North,0,0.0,0.0,53,0.00,CLR,SCT,0.00,WeatherDisplay:10.37,2013-09-16 00:59:00,
2013-09-15 21:04:00,83.5,64.5,30.26,North,0,0.0,0.0,53,0.00,CLR,SCT,0.00,WeatherDisplay:10.37,2013-09-16 01:04:00,
2013-09-15 21:09:00,83.5,64.5,30.26,North,0,0.0,0.0,53,0.00,CLR,SCT,0.00,WeatherDisplay:10.37,2013-09-16 01:09:00,
2013-09-15 21:14:00,83.5,64.5,30.26,North,0,0.0,0.0,53,0.00,CLR,SCT,0.00,WeatherDisplay:10.37,2013-09-16 01:14:00,
2013-09-15 21:19:00,83.5,64.5,30.26,North,0,0.0,0.0,53,0.00,CLR,SCT,0.00,WeatherDisplay:10.37,2013-09-16 01:19:00,
2013-09-15 21:24:00,83.5,64.5,30.26,North,0,0.0,0.0,53,0.00,CLR,SCT,0.00,WeatherDisplay:10.37,2013-09-16 01:24:00,
2013-09-15 21:29:00,83.5,64.5,30.26,North,0,0.0,0.0,53,0.00,CLR,SCT,0.00,WeatherDisplay:10.37,2013-09-16 01:29:00,
2013-09-15 21:34:00,83.5,64.5,30.26,North,0,0.0,0.0,53,0.00,CLR,SCT,0.00,WeatherDisplay:10.37,2013-09-16 01:34:00,
2013-09-15 21:39:00,83.5,64.5,30.26,North,0,0.0,0.0,53,0.00,CLR,SCT,0.00,WeatherDisplay:10.37,2013-09-16 01:39:00,
2013-09-15 21:44:00,83.5,64.5,30.26,North,0,0.0,0.0,53,0.00,CLR,SCT,0.00,WeatherDisplay:10.37,2013-09-16 01:44:00,
2013-09-15 21:49:00,83.5,64.5,30.26,North,0,0.0,0.0,53,0.00,CLR,SCT,0.00,WeatherDisplay:10.37,2013-09-16 01:49:00,
2013-09-15 21:54:00,83.5,64.5,30.26,North,0,0.0,0.0,53,0.00,CLR,SCT,0.00,WeatherDisplay:10.37,2013-09-16 01:54:00,
2013-09-15 21:59:00,83.5,64.5,30.26,North,0,0.0,0.0,53,0.00,CLR,SCT,0.00,WeatherDisplay:10.37,2013-09-16 01:59:00,
2013-09-15 22:04:00,83.5,64.5,30.26,North,0,0.0,0.0,53,0.00,CLR,SCT,0.00,WeatherDisplay:10.37,2013-09-16 02:04:00,
2013-09-15 22:09:00,83.5,64.5,30.26,North,0,0.0,0.0,53,0.00,CLR,SCT,0.00,WeatherDisplay:10.37,2013-09-16 02:09:00,
2013-09-15 22:14:00,83.5,64.5,30.26,North,0,0.0,0.0,53,0.00,CLR,SCT,0.00,WeatherDisplay:10.37,2013-09-16 02:14:00,
2013-09-15 22:19:00,83.5,64.5,30.26,North,0,0.0,0.0,53,0.00,CLR,SCT,0.00,WeatherDisplay:10.37,2013-09-16 02:19:00,
2013-09-15 22:24:00,83.5,64.5,30.26,North,0,0.0,0.0,53,0.00,CLR,SCT,0.00,WeatherDisplay:10.37,2013-09-16 02:24:00,
2013-09-15 22:29:00,83.5,64.5,30.26,North,0,0.0,0.0,53,0.00,CLR,SCT,0.00,WeatherDisplay:10.37,2013-09-16 02:29:00,
2013-09-15 22:34:00,83.5,64.5,30.26,North,0,0.0,0.0,53,0.00,CLR,SCT,0.00,WeatherDisplay:10.37,2013-09-16 02:34:00,
2013-09-15 22:39:00,83.5,64.5,30.26,North,0,0.0,0.0,53,0.00,CLR,SCT,0.00,WeatherDisplay:10.37,2013-09-16 02:39:00,
2013-09-15 22:44:00,83.5,64.5,30.26,North,0,0.0,0.0,53,0.00,CLR,SCT,0.00,WeatherDisplay:10.37,2013-09-16 02:44:00,
2013-09-15 22:49:00,83.5,64.5,30.26,North,0,0.0,0.0,53,0.00,CLR,SCT,0.00,WeatherDisplay:10.37,2013-09-16 02:49:00,
2013-09-15 22:54:00,83.5,64.5,30.26,North,0,0.0,0.0,53,0.00,CLR,SCT,0.00,WeatherDisplay:10.37,2013-09-16 02:54:00,
2013-09-15 22:59:00,83.5,64.5,30.26,North,0,0.0,0.0,53,0.00,CLR,SCT,0.00,WeatherDisplay:10.37,2013-09-16 02:59:00,
2013-09-15 23:04:00,83.5,64.5,30.26,North,0,0.0,0.0,53,0.00,CLR,SCT,0.00,WeatherDisplay:10.37,2013-09-16 03:04:00,
2013-09-15 23:09:00,83.5,64.5,30.26,North,0,0.0,0.0,53,0.00,CLR,SCT,0.00,WeatherDisplay:10.37,2013-09-16 03:09:00,
2013-09-15 23:14:00,83.5,64.5,30.26,North,0,0.0,0.0,53,0.00,CLR,SCT,0.00,WeatherDisplay:10.37,2013-09-16 03:14:00,
2013-09-15 23:19:00,83.5,64.5,30.26,North,0,0.0,0.0,53,0.00,CLR,SCT,0.00,WeatherDisplay:10.37,2013-09-16 03:19:00,
2013-09-15 23:24:00,83.5,64.5,30.26,North,0,0.0,0.0,53,0.00,CLR,SCT,0.00,WeatherDisplay:10.37,2013-09-16 03:24:00,
2013-09-15 23:29:00,83.5,64.5,30.26,North,0,0.0,0.0,53,0.00,CLR,SCT,0.00,WeatherDisplay:10.37,2013-09-16 03:29:00,
2013-09-15 23:34:00,83.5,64.5,30.26,North,0,0.0,0.0,53,0.00,CLR,SCT,0.00,WeatherDisplay:10.37,2013-09-16 03:34:00,
2013-09-15 23:39:00,83.5,64.5,30.26,North,0,0.0,0.0,53,0.00,CLR,SCT,0.00,WeatherDisplay:10.37,2013-09-16 03:39:00,
2013-09-15 23:44:00,83.5,64.5,30.26,North,0,0.0,0.0,53,0.00,CLR,SCT,0.00,WeatherDisplay:10.37,2013-09-16 03:44:00,
2013-09-15 23:49:00,83.5,64.5,30.26,North,0,0.0,0.0,53,0.00,CLR,SCT,0.00,WeatherDisplay:10.37,2013-09-16 03:49:00,
2013-09-15 23:54:00,83.5,64.5,30.26,North,0,0.0,0.0,53,0.00,CLR,SCT,0.00,WeatherDisplay:10.37,2013-09-16 03:54:00,
2013-09-15 23:59:00,83.5,64.5,30.26,North,0,0.0,0.0,53,0.00,CLR,SCT,0.00,WeatherDisplay:10.37,2013-09-16 03:59:00,